createdAt,value
2024-01-05T00:01:15.569Z,81.76
2024-01-05T00:06:19.144Z,80.94
2024-01-05T00:11:23.206Z,80.14
2024-01-05T00:16:26.472Z,79.05
2024-01-05T00:21:30.292Z,78.05
2024-01-05T00:26:33.828Z,77.25
2024-01-05T00:31:36.755Z,76.98
2024-01-05T00:36:40.318Z,77.01
2024-01-05T00:41:46.714Z,76.80
2024-01-05T00:46:49.590Z,77.33
2024-01-05T00:51:52.663Z,76.95
2024-01-05T00:56:56.121Z,76.79
2024-01-05T01:01:59.016Z,76.92
2024-01-05T01:07:02.291Z,76.37
2024-01-05T01:12:05.803Z,75.64
2024-01-05T01:17:08.930Z,75.10
2024-01-05T01:22:12.080Z,75.20
2024-01-05T01:27:16.146Z,74.60
2024-01-05T01:32:19.449Z,74.49
2024-01-05T01:37:22.926Z,74.98
2024-01-05T01:42:26.393Z,75.07
2024-01-05T01:47:30.201Z,75.82
2024-01-05T01:52:34.193Z,75.96
2024-01-05T01:57:38.608Z,76.43
2024-01-05T02:02:42.399Z,76.99
2024-01-05T02:07:45.863Z,77.10
2024-01-05T02:12:49.185Z,77.26
2024-01-05T02:17:52.765Z,77.31
2024-01-05T02:23:03.806Z,78.87
2024-01-05T02:28:07.014Z,80.41
2024-01-05T02:33:10.622Z,80.98
2024-01-05T02:38:14.004Z,81.63
2024-01-05T02:43:17.143Z,82.28
2024-01-05T02:48:20.716Z,83.03
2024-01-05T02:53:24.107Z,83.51
2024-01-05T02:58:27.268Z,83.73
2024-01-05T03:03:30.695Z,84.11
2024-01-05T03:08:34.343Z,84.11
2024-01-05T03:13:38.095Z,84.24
2024-01-05T03:18:41.736Z,84.19
2024-01-05T03:23:45.181Z,84.30
2024-01-05T03:28:48.257Z,84.04
2024-01-05T03:33:51.522Z,83.89
2024-01-05T03:38:55.466Z,84.25
2024-01-05T03:43:58.556Z,84.10
2024-01-05T03:49:02.178Z,84.32
2024-01-05T03:54:05.425Z,83.96
2024-01-05T03:59:10.301Z,84.25
2024-01-05T04:04:14.463Z,84.15
2024-01-05T04:09:17.723Z,84.24
2024-01-05T04:14:20.761Z,83.80
2024-01-05T04:19:24.205Z,83.52
2024-01-05T04:24:27.408Z,83.52
2024-01-05T04:29:30.685Z,82.85
2024-01-05T04:34:53.817Z,82.68
2024-01-05T04:39:57.193Z,82.50
2024-01-05T04:45:00.175Z,82.50
2024-01-05T04:50:06.063Z,82.11
2024-01-05T04:55:28.963Z,81.69
2024-01-05T05:00:32.020Z,81.21
2024-01-05T05:05:34.997Z,81.29
2024-01-05T05:10:41.178Z,81.12
2024-01-05T05:15:44.313Z,81.32
2024-01-05T05:20:47.552Z,81.36
2024-01-05T05:25:50.670Z,81.28
2024-01-05T05:30:54.080Z,81.53
2024-01-05T05:35:57.227Z,81.49
2024-01-05T05:41:00.303Z,81.46
2024-01-05T05:46:03.543Z,81.74
2024-01-05T05:51:06.500Z,81.61
2024-01-05T05:56:10.513Z,81.74
2024-01-05T06:01:14.520Z,81.69
2024-01-05T06:06:22.995Z,81.99
2024-01-05T06:11:28.058Z,81.40
2024-01-05T06:16:31.979Z,81.12
2024-01-05T06:21:35.250Z,80.98
2024-01-05T06:26:38.801Z,80.53
2024-01-05T06:31:42.413Z,80.30
2024-01-05T06:36:45.707Z,80.33
2024-01-05T06:41:48.541Z,80.14
2024-01-05T06:46:51.858Z,79.81
2024-01-05T06:51:54.786Z,79.62
2024-01-05T06:56:57.954Z,79.18
2024-01-05T07:02:01.445Z,79.34
2024-01-05T07:07:04.409Z,79.05
2024-01-05T07:12:07.678Z,78.98
2024-01-05T07:17:10.716Z,79.21
2024-01-05T07:22:13.759Z,79.20
2024-01-05T07:27:18.178Z,79.27
2024-01-05T07:32:22.173Z,79.20
2024-01-05T07:37:25.798Z,78.97
2024-01-05T07:42:29.129Z,78.97
2024-01-05T07:47:52.406Z,79.15
2024-01-05T07:53:03.748Z,78.89
2024-01-05T07:58:07.017Z,79.39
2024-01-05T08:03:11.547Z,79.19
2024-01-05T08:08:15.502Z,79.43
2024-01-05T08:13:20.542Z,78.76
2024-01-05T08:18:23.890Z,78.74
2024-01-05T08:23:27.293Z,78.75
2024-01-05T08:28:31.480Z,78.99
2024-01-05T08:33:34.698Z,79.14
2024-01-05T08:38:38.190Z,79.08
2024-01-05T08:43:45.513Z,78.96
2024-01-05T08:48:49.990Z,78.45
2024-01-05T08:53:53.855Z,78.12
2024-01-05T08:58:56.976Z,77.91
2024-01-05T09:04:00.474Z,78.05
2024-01-05T09:09:04.270Z,78.11
2024-01-05T09:14:08.236Z,77.11
2024-01-05T09:19:11.158Z,77.19
2024-01-05T09:24:14.385Z,77.07
2024-01-05T09:29:34.377Z,77.19
2024-01-05T09:34:37.661Z,77.36
2024-01-05T09:39:40.915Z,76.84
2024-01-05T09:44:52.953Z,76.94
2024-01-05T09:49:58.448Z,76.64
2024-01-05T09:55:18.166Z,75.71
2024-01-05T10:00:22.197Z,75.81
2024-01-05T10:05:26.555Z,75.61
2024-01-05T10:10:53.947Z,76.24
2024-01-05T10:16:00.678Z,75.75
2024-01-05T10:21:11.159Z,76.15
2024-01-05T10:26:18.526Z,76.62
2024-01-05T10:31:22.192Z,76.65
2024-01-05T10:36:28.191Z,76.56
2024-01-05T10:41:31.242Z,76.59
2024-01-05T10:46:36.102Z,76.62
2024-01-05T10:51:40.303Z,76.46
2024-01-05T10:56:46.189Z,76.14
2024-01-05T11:01:50.446Z,76.01
2024-01-05T11:06:55.455Z,75.67
2024-01-05T11:12:37.469Z,75.38
2024-01-05T11:18:14.587Z,75.64
2024-01-05T11:23:18.486Z,75.65
2024-01-05T11:28:39.511Z,75.77
2024-01-05T11:33:51.439Z,75.63
2024-01-05T11:38:54.498Z,75.86
2024-01-05T11:43:57.878Z,75.15
2024-01-05T11:49:01.278Z,75.07
2024-01-05T11:54:04.529Z,74.83
2024-01-05T11:59:08.229Z,74.81
2024-01-05T12:04:11.403Z,75.17
2024-01-05T12:09:14.474Z,75.58
2024-01-05T12:14:27.724Z,75.63
2024-01-05T12:19:31.214Z,75.12
2024-01-05T12:24:35.020Z,75.10
2024-01-05T12:29:38.935Z,75.18
2024-01-05T12:34:42.360Z,75.22
2024-01-05T12:39:45.523Z,75.15
2024-01-05T12:44:48.675Z,74.32
2024-01-05T12:49:52.162Z,74.68
2024-01-05T12:54:55.493Z,75.27
2024-01-05T13:00:23.872Z,75.37
2024-01-05T13:05:35.879Z,75.25
2024-01-05T13:10:40.970Z,75.25
2024-01-05T13:15:44.338Z,75.87
2024-01-05T13:20:48.024Z,75.87
2024-01-05T13:25:52.178Z,75.89
2024-01-05T13:30:55.218Z,75.89
2024-01-05T13:35:58.837Z,75.90
2024-01-05T13:41:02.069Z,75.95
2024-01-05T13:46:05.666Z,76.36
2024-01-05T13:51:08.736Z,75.93
2024-01-05T13:56:11.908Z,76.22
2024-01-05T14:01:15.044Z,76.48
2024-01-05T14:06:18.046Z,76.57
2024-01-05T14:11:21.161Z,76.43
2024-01-05T14:16:24.435Z,76.85
2024-01-05T14:21:27.764Z,76.73
2024-01-05T14:26:30.834Z,76.82
2024-01-05T14:31:37.544Z,76.82
2024-01-05T14:36:40.705Z,77.09
2024-01-05T14:41:43.949Z,77.34
2024-01-05T14:46:47.042Z,76.77
2024-01-05T14:51:50.656Z,76.89
2024-01-05T14:56:53.679Z,77.27
2024-01-05T15:01:59.962Z,77.08
2024-01-05T15:07:03.557Z,77.20
2024-01-05T15:12:06.898Z,77.09
2024-01-05T15:17:11.778Z,77.38
2024-01-05T15:22:14.855Z,77.50
2024-01-05T15:27:18.159Z,77.23
2024-01-05T15:32:21.579Z,77.57
2024-01-05T15:37:45.237Z,77.55
2024-01-05T15:43:08.383Z,77.28
2024-01-05T15:48:31.558Z,77.47
2024-01-05T15:53:57.619Z,77.37
2024-01-05T15:59:22.761Z,77.19
2024-01-05T16:04:45.963Z,77.24
2024-01-05T16:10:09.591Z,77.65
2024-01-05T16:15:32.646Z,77.46
2024-01-05T16:20:59.328Z,77.26
2024-01-05T16:26:22.582Z,77.16
2024-01-05T16:31:46.109Z,77.21
2024-01-05T16:37:09.338Z,76.74
2024-01-05T16:42:32.513Z,77.20
2024-01-05T16:47:55.638Z,76.74
2024-01-05T16:53:18.990Z,75.87
2024-01-05T16:58:41.954Z,76.51
2024-01-05T17:04:05.018Z,76.09
2024-01-05T17:09:28.249Z,76.50
2024-01-05T17:14:32.120Z,75.88
2024-01-05T17:19:36.577Z,76.02
2024-01-05T17:24:39.931Z,76.38
2024-01-05T17:29:45.283Z,75.93
2024-01-05T17:34:48.554Z,75.75
2024-01-05T17:39:51.892Z,74.87
2024-01-05T17:44:55.280Z,75.49
2024-01-05T17:49:59.592Z,75.71
2024-01-05T17:55:02.857Z,76.14
2024-01-05T18:00:08.080Z,76.46
2024-01-05T18:05:11.409Z,76.27
2024-01-05T18:10:14.780Z,76.35
2024-01-05T18:15:18.028Z,76.24
2024-01-05T18:20:21.238Z,75.70
2024-01-05T18:25:24.231Z,75.60
2024-01-05T18:30:27.603Z,75.84
2024-01-05T18:35:31.914Z,76.00
2024-01-05T18:40:35.323Z,76.09
2024-01-05T18:45:38.872Z,75.94
2024-01-05T18:50:42.621Z,76.42
2024-01-05T18:55:45.703Z,76.66
2024-01-05T19:00:49.559Z,77.04
2024-01-05T19:05:53.358Z,76.95
2024-01-05T19:10:56.687Z,76.78
2024-01-05T19:15:59.874Z,76.53
2024-01-05T19:21:04.260Z,76.90
2024-01-05T19:26:07.902Z,77.01
2024-01-05T19:31:11.182Z,77.43
2024-01-05T19:36:16.704Z,77.31
2024-01-05T19:41:20.248Z,77.76
2024-01-05T19:46:23.781Z,77.30
2024-01-05T19:51:26.953Z,77.54
2024-01-05T19:56:29.997Z,77.58
2024-01-05T20:01:33.276Z,77.76
2024-01-05T20:06:39.543Z,77.47
2024-01-05T20:11:43.599Z,77.29
2024-01-05T20:16:48.171Z,77.45
2024-01-05T20:21:52.057Z,77.26
2024-01-05T20:27:15.159Z,77.55
2024-01-05T20:32:18.646Z,78.05
2024-01-05T20:37:22.576Z,77.69
2024-01-05T20:42:25.660Z,77.73
2024-01-05T20:47:28.942Z,77.37
2024-01-05T20:52:34.090Z,77.73
2024-01-05T20:57:38.109Z,77.90
2024-01-05T21:02:41.352Z,77.77
2024-01-05T21:07:44.523Z,77.95
2024-01-05T21:12:47.640Z,77.51
2024-01-05T21:17:51.289Z,78.08
2024-01-05T21:22:56.577Z,77.74
2024-01-05T21:28:00.806Z,77.51
2024-01-05T21:33:05.807Z,77.93
2024-01-05T21:38:09.361Z,77.90
2024-01-05T21:43:13.354Z,78.45
2024-01-05T21:48:16.609Z,78.43
2024-01-05T21:53:19.887Z,78.56
2024-01-05T21:58:23.073Z,78.65
2024-01-05T22:03:26.407Z,78.22
2024-01-05T22:08:29.402Z,77.93
2024-01-05T22:13:32.615Z,78.03
2024-01-05T22:18:38.443Z,78.15
2024-01-05T22:23:42.217Z,78.43
2024-01-05T22:28:44.983Z,78.24
2024-01-05T22:33:48.312Z,78.66
2024-01-05T22:38:51.442Z,78.25
2024-01-05T22:43:54.886Z,78.43
2024-01-05T22:48:57.973Z,78.64
2024-01-05T22:54:21.072Z,78.77
2024-01-05T22:59:44.676Z,78.86
2024-01-05T23:04:53.991Z,78.80
2024-01-05T23:10:17.922Z,78.66
2024-01-05T23:15:40.879Z,78.68
2024-01-05T23:21:03.925Z,79.04
2024-01-05T23:26:34.290Z,78.59
2024-01-05T23:32:02.905Z,78.60
2024-01-05T23:37:06.062Z,78.82
2024-01-05T23:42:09.409Z,78.60
2024-01-05T23:47:12.656Z,79.04
2024-01-05T23:52:15.699Z,78.66
2024-01-05T23:57:18.963Z,78.86
